Orbital elements of SL-8 DEB
| Launched | 14 March 1965 |
| Flight ended | – |
| Launch site | Tyuratam Missile and Space Center, Kazakhstan (Also known as Baikonur Cosmodrome) |
| Owner | Commonwealth of Independent States (former USSR) |
| NORAD ID | 1392 |
| Date fetched |
Epoch osculation |
Inc. [°] |
Ecc. | RA asc node [hr] |
Arg Peri. [°] |
Mean anom [°] |
Mean motion [rev/day] |
Abs. mag |
| Date fetched |
Epoch osculation |
Inc. [°] |
Ecc. | RA asc node [hr] |
Arg Peri. [°] |
Mean anom [°] |
Mean motion [rev/day] |
Abs. mag |
| 2026 May 05 17:57 | 2026 May 05 12:26:21 | 55.8589 | 0.01332 | 2.9910 | 325.2391 | 33.9985 | 15.16793 | – |
| 2026 May 04 17:57 | 2026 Apr 30 13:47:47 | 55.8566 | 0.01339 | 4.3947 | 314.3625 | 33.9985 | 15.16793 | – |
| 2026 May 03 17:57 | 2026 Apr 30 13:47:47 | 55.8566 | 0.01339 | 4.3947 | 314.3625 | 33.9985 | 15.16793 | – |
| 2026 May 02 17:57 | 2026 Apr 30 13:47:47 | 55.8566 | 0.01339 | 4.3947 | 314.3625 | 33.9985 | 15.16793 | – |
| 2026 May 01 17:56 | 2026 Apr 30 13:47:47 | 55.8566 | 0.01339 | 4.3947 | 314.3625 | 33.9985 | 15.16793 | – |
| 2026 Apr 30 17:56 | 2026 Apr 30 13:47:47 | 55.8566 | 0.01339 | 4.3947 | 314.3625 | 33.9985 | 15.16793 | – |
| 2026 Apr 29 17:57 | 2026 Apr 24 12:12:40 | 55.8570 | 0.01348 | 6.1160 | 301.1010 | 33.9985 | 15.16793 | – |
| 2026 Apr 28 17:56 | 2026 Apr 24 12:12:40 | 55.8570 | 0.01348 | 6.1160 | 301.1010 | 33.9985 | 15.16793 | – |
| 2026 Apr 27 17:58 | 2026 Apr 24 12:12:40 | 55.8570 | 0.01348 | 6.1160 | 301.1010 | 33.9985 | 15.16793 | – |
| 2026 Apr 26 17:58 | 2026 Apr 24 12:12:40 | 55.8570 | 0.01348 | 6.1160 | 301.1010 | 33.9985 | 15.16793 | – |
| 2026 Apr 25 17:58 | 2026 Apr 24 12:12:40 | 55.8570 | 0.01348 | 6.1160 | 301.1010 | 33.9985 | 15.16793 | – |
| 2026 Apr 24 17:59 | 2026 Apr 24 12:12:40 | 55.8570 | 0.01348 | 6.1160 | 301.1010 | 33.9985 | 15.16793 | – |
| 2026 Apr 23 17:57 | 2026 Apr 19 07:09:41 | 55.8575 | 0.01352 | 7.5934 | 289.6579 | 33.9985 | 15.16793 | – |
| 2026 Apr 22 17:57 | 2026 Apr 19 07:09:41 | 55.8575 | 0.01352 | 7.5934 | 289.6579 | 33.9985 | 15.16793 | – |
| 2026 Apr 21 17:57 | 2026 Apr 19 07:09:41 | 55.8575 | 0.01352 | 7.5934 | 289.6579 | 33.9985 | 15.16793 | – |
| 2026 Apr 20 17:57 | 2026 Apr 19 07:09:41 | 55.8575 | 0.01352 | 7.5934 | 289.6579 | 33.9985 | 15.16793 | – |
| 2026 Apr 19 17:58 | 2026 Apr 19 07:09:41 | 55.8575 | 0.01352 | 7.5934 | 289.6579 | 33.9985 | 15.16793 | – |
| 2026 Apr 18 17:56 | 2026 Apr 13 05:30:20 | 55.8565 | 0.01358 | 9.3135 | 276.0130 | 33.9985 | 15.16793 | – |
| 2026 Apr 16 17:57 | 2026 Apr 13 05:30:20 | 55.8565 | 0.01358 | 9.3135 | 276.0130 | 33.9985 | 15.16793 | – |
| 2026 Apr 14 17:57 | 2026 Apr 13 05:30:20 | 55.8565 | 0.01358 | 9.3135 | 276.0130 | 33.9985 | 15.16793 | – |
| 2026 Apr 13 17:57 | 2026 Apr 13 05:30:20 | 55.8565 | 0.01358 | 9.3135 | 276.0130 | 33.9985 | 15.16793 | – |
| 2026 Apr 12 17:57 | 2026 Apr 08 11:29:42 | 55.8571 | 0.01365 | 10.6593 | 265.3101 | 33.9985 | 15.16793 | – |
| 2026 Apr 11 17:57 | 2026 Apr 08 11:29:42 | 55.8571 | 0.01365 | 10.6593 | 265.3101 | 33.9985 | 15.16793 | – |
| 2026 Apr 10 17:58 | 2026 Apr 08 11:29:42 | 55.8571 | 0.01365 | 10.6593 | 265.3101 | 33.9985 | 15.16793 | – |
| 2026 Apr 09 18:01 | 2026 Apr 08 11:29:42 | 55.8571 | 0.01365 | 10.6593 | 265.3101 | 33.9985 | 15.16793 | – |
| 2026 Apr 08 17:57 | 2026 Apr 08 11:29:42 | 55.8571 | 0.01365 | 10.6593 | 265.3101 | 33.9985 | 15.16793 | – |